Accueil
METAR-TAF:

METAR-TAF

Aéroports :

Aupaluk, Québec, Canada

latitude: 59-17-48N, longitude: 069-35-59W, altitude: 35 m

Observation

Le bulletin a été fait il y a 10 heures et 16 minutes, à 20:00 UTC
Vent 14 kt de ouest/sud-ouest avec des rafales jusqu'à 21 kt
Température -26°C
Humidité 62%
Pression 1012 hPa
Visibilité: 24.1 km
Quelques nuages à une hauteur de 2600 ft
Nuages fragmentés à une hauteur de 6900 ft
Nuages fragmentés à une hauteur de 8000 ft
Chasse-neige basse

METAR: CYLA 172000Z 24014G21KT 15SM DRSN FEW026 BKN069 BKN080 M26/M31 A2989 RMK SC1AS4AC2 SNW CVR/TRACE LOOSE LAST STFD OBS/NXT 181300Z SLP130

Heure: 01:16 (06:16 UTC)


TAF: absent

Observations et prévisions météorologiques de plus de 4000 aéroports (messages METAR et TAF).

Les stations disponibles sont représentées par des disques jaunes et rouges sur la carte.

Passer la souris dessus pour voir le nom de la station.

Cliquer dessus pour voir les observations et prévisions météorologiques.

Pour changer de carte: cliquez sur les boutons verts avec une croix noire pour zoomer, sur le bouton vert avec un tiret pour effectuer un zoom arrière, ou sur les flèches vertes pour les cartes adjacentes.


METAR-TAF: